sensor_id;sensor_type;location;lat;lon;timestamp;pressure;altitude;pressure_sealevel;temperature;humidity
75409;BME280;63979;55.644;37.734;2022-12-13T00:02:03;99192.25;;;1.56;83.25
75409;BME280;63979;55.644;37.734;2022-12-13T00:07:04;99222.50;;;1.67;83.01
75409;BME280;63979;55.644;37.734;2022-12-13T00:12:05;99231.31;;;1.66;83.39
75409;BME280;63979;55.644;37.734;2022-12-13T00:17:06;99243.81;;;1.61;83.65
75409;BME280;63979;55.644;37.734;2022-12-13T00:22:07;99224.22;;;1.68;83.51
75409;BME280;63979;55.644;37.734;2022-12-13T00:27:08;99238.22;;;1.68;83.62
75409;BME280;63979;55.644;37.734;2022-12-13T00:32:09;99233.03;;;1.67;83.54
75409;BME280;63979;55.644;37.734;2022-12-13T00:37:10;99220.13;;;1.61;83.36
75409;BME280;63979;55.644;37.734;2022-12-13T00:42:11;99227.41;;;1.76;83.46
75409;BME280;63979;55.644;37.734;2022-12-13T00:47:12;99193.84;;;1.61;83.40
75409;BME280;63979;55.644;37.734;2022-12-13T00:52:13;99219.31;;;1.80;83.35
75409;BME280;63979;55.644;37.734;2022-12-13T00:57:14;99232.66;;;1.76;83.92
75409;BME280;63979;55.644;37.734;2022-12-13T01:02:16;99218.75;;;1.72;84.15
75409;BME280;63979;55.644;37.734;2022-12-13T01:07:17;99213.19;;;1.80;83.58
75409;BME280;63979;55.644;37.734;2022-12-13T01:12:21;99184.09;;;1.63;83.98
75409;BME280;63979;55.644;37.734;2022-12-13T01:17:22;99215.25;;;1.72;83.66
75409;BME280;63979;55.644;37.734;2022-12-13T01:22:23;99208.06;;;1.77;84.44
75409;BME280;63979;55.644;37.734;2022-12-13T01:27:25;99214.75;;;1.84;83.96
75409;BME280;63979;55.644;37.734;2022-12-13T01:32:25;99217.25;;;1.87;83.71
75409;BME280;63979;55.644;37.734;2022-12-13T01:37:26;99218.81;;;1.71;84.38
75409;BME280;63979;55.644;37.734;2022-12-13T01:42:28;99207.94;;;1.80;84.53
75409;BME280;63979;55.644;37.734;2022-12-13T01:47:45;99222.00;;;1.79;84.68
75409;BME280;63979;55.644;37.734;2022-12-13T01:52:47;99227.00;;;1.85;84.47
75409;BME280;63979;55.644;37.734;2022-12-13T01:57:52;99226.28;;;1.81;84.60
75409;BME280;63979;55.644;37.734;2022-12-13T02:02:57;99228.19;;;1.78;84.56
75409;BME280;63979;55.644;37.734;2022-12-13T02:08:00;99218.31;;;1.83;84.46
75409;BME280;63979;55.644;37.734;2022-12-13T02:13:02;99232.31;;;1.83;84.88
75409;BME280;63979;55.644;37.734;2022-12-13T02:18:19;99233.13;;;1.85;84.90
75409;BME280;63979;55.644;37.734;2022-12-13T02:34:40;99224.88;;;1.73;84.57
75409;BME280;63979;55.644;37.734;2022-12-13T02:39:57;99197.25;;;1.63;84.28
75409;BME280;63979;55.644;37.734;2022-12-13T02:45:06;99227.25;;;1.79;84.96
75409;BME280;63979;55.644;37.734;2022-12-13T02:50:11;99239.69;;;1.75;84.92
75409;BME280;63979;55.644;37.734;2022-12-13T02:55:15;99218.59;;;1.77;84.26
75409;BME280;63979;55.644;37.734;2022-12-13T03:00:17;99237.66;;;1.82;84.11
75409;BME280;63979;55.644;37.734;2022-12-13T03:06:13;99238.72;;;1.78;84.17
75409;BME280;63979;55.644;37.734;2022-12-13T03:11:28;99244.75;;;1.80;84.00
75409;BME280;63979;55.644;37.734;2022-12-13T03:16:51;99238.00;;;1.73;83.48
75409;BME280;63979;55.644;37.734;2022-12-13T03:21:54;99245.50;;;1.62;83.42
75409;BME280;63979;55.644;37.734;2022-12-13T03:26:55;99246.88;;;1.50;84.61
75409;BME280;63979;55.644;37.734;2022-12-13T03:31:55;99236.91;;;1.36;84.70
75409;BME280;63979;55.644;37.734;2022-12-13T03:36:56;99234.19;;;1.39;84.88
75409;BME280;63979;55.644;37.734;2022-12-13T03:41:57;99234.06;;;1.42;85.40
75409;BME280;63979;55.644;37.734;2022-12-13T03:46:58;99234.66;;;1.49;85.48
75409;BME280;63979;55.644;37.734;2022-12-13T03:51:59;99236.84;;;1.60;84.76
75409;BME280;63979;55.644;37.734;2022-12-13T03:57:00;99234.72;;;1.68;84.45
75409;BME280;63979;55.644;37.734;2022-12-13T04:02:01;99231.19;;;1.69;84.67
75409;BME280;63979;55.644;37.734;2022-12-13T04:07:02;99248.44;;;1.76;84.38
75409;BME280;63979;55.644;37.734;2022-12-13T04:12:03;99241.56;;;1.72;84.72
75409;BME280;63979;55.644;37.734;2022-12-13T04:17:22;99221.09;;;1.80;84.49
75409;BME280;63979;55.644;37.734;2022-12-13T04:22:23;99239.22;;;1.86;84.52
75409;BME280;63979;55.644;37.734;2022-12-13T04:27:24;99239.38;;;1.83;84.81
75409;BME280;63979;55.644;37.734;2022-12-13T04:32:25;99218.94;;;1.68;85.09
75409;BME280;63979;55.644;37.734;2022-12-13T04:37:25;99232.75;;;1.73;85.75
75409;BME280;63979;55.644;37.734;2022-12-13T04:42:27;99234.53;;;1.72;85.36
75409;BME280;63979;55.644;37.734;2022-12-13T04:47:28;99241.34;;;1.78;86.21
75409;BME280;63979;55.644;37.734;2022-12-13T04:52:28;99245.03;;;1.74;85.91
75409;BME280;63979;55.644;37.734;2022-12-13T04:57:29;99236.56;;;1.66;86.59
75409;BME280;63979;55.644;37.734;2022-12-13T05:02:30;99235.06;;;1.60;86.13
75409;BME280;63979;55.644;37.734;2022-12-13T05:07:31;99241.13;;;1.82;86.53
75409;BME280;63979;55.644;37.734;2022-12-13T05:12:33;99249.81;;;1.84;86.11
75409;BME280;63979;55.644;37.734;2022-12-13T05:17:34;99233.38;;;2.00;85.47
75409;BME280;63979;55.644;37.734;2022-12-13T05:22:35;99252.78;;;1.97;85.40
75409;BME280;63979;55.644;37.734;2022-12-13T05:27:37;99253.22;;;2.07;85.29
75409;BME280;63979;55.644;37.734;2022-12-13T05:32:38;99256.06;;;2.02;84.94
75409;BME280;63979;55.644;37.734;2022-12-13T05:37:39;99265.09;;;2.17;84.77
75409;BME280;63979;55.644;37.734;2022-12-13T05:42:39;99249.66;;;2.08;84.69
75409;BME280;63979;55.644;37.734;2022-12-13T05:47:40;99267.22;;;2.09;84.41
75409;BME280;63979;55.644;37.734;2022-12-13T05:52:42;99258.31;;;2.11;84.31
75409;BME280;63979;55.644;37.734;2022-12-13T05:57:43;99272.34;;;2.12;84.41
75409;BME280;63979;55.644;37.734;2022-12-13T06:02:44;99260.34;;;2.25;84.14
75409;BME280;63979;55.644;37.734;2022-12-13T06:07:45;99262.31;;;2.20;83.89
75409;BME280;63979;55.644;37.734;2022-12-13T06:12:46;99265.69;;;2.24;83.97
75409;BME280;63979;55.644;37.734;2022-12-13T06:17:47;99262.38;;;2.18;84.22
75409;BME280;63979;55.644;37.734;2022-12-13T06:22:47;99268.69;;;2.35;83.76
75409;BME280;63979;55.644;37.734;2022-12-13T06:27:48;99222.38;;;2.10;83.44
75409;BME280;63979;55.644;37.734;2022-12-13T06:32:49;99268.97;;;2.29;83.83
75409;BME280;63979;55.644;37.734;2022-12-13T06:37:51;99271.72;;;2.26;83.96
75409;BME280;63979;55.644;37.734;2022-12-13T06:42:52;99290.66;;;2.34;83.95
75409;BME280;63979;55.644;37.734;2022-12-13T06:47:54;99301.00;;;2.38;83.87
75409;BME280;63979;55.644;37.734;2022-12-13T06:52:55;99285.56;;;2.10;84.25
75409;BME280;63979;55.644;37.734;2022-12-13T06:57:57;99318.78;;;2.33;84.24
75409;BME280;63979;55.644;37.734;2022-12-13T07:02:58;99317.94;;;2.33;84.07
75409;BME280;63979;55.644;37.734;2022-12-13T07:07:59;99325.69;;;2.36;84.14
75409;BME280;63979;55.644;37.734;2022-12-13T07:13:01;99327.47;;;2.35;84.23
75409;BME280;63979;55.644;37.734;2022-12-13T07:18:02;99335.44;;;2.34;83.96
75409;BME280;63979;55.644;37.734;2022-12-13T07:23:03;99337.41;;;2.29;84.14
75409;BME280;63979;55.644;37.734;2022-12-13T07:28:06;99301.22;;;2.13;84.53
75409;BME280;63979;55.644;37.734;2022-12-13T07:33:07;99344.91;;;2.38;84.31
75409;BME280;63979;55.644;37.734;2022-12-13T07:38:09;99355.78;;;2.50;84.04
75409;BME280;63979;55.644;37.734;2022-12-13T07:43:11;99328.84;;;2.24;84.07
75409;BME280;63979;55.644;37.734;2022-12-13T07:48:12;99357.84;;;2.44;84.35
75409;BME280;63979;55.644;37.734;2022-12-13T07:53:12;99353.31;;;2.47;84.40
75409;BME280;63979;55.644;37.734;2022-12-13T07:58:13;99311.50;;;2.19;84.12
75409;BME280;63979;55.644;37.734;2022-12-13T08:03:14;99358.56;;;2.47;84.44
75409;BME280;63979;55.644;37.734;2022-12-13T08:08:16;99376.28;;;2.44;83.99
75409;BME280;63979;55.644;37.734;2022-12-13T08:13:16;99367.97;;;2.53;83.80
75409;BME280;63979;55.644;37.734;2022-12-13T08:18:17;99374.69;;;2.60;83.68
75409;BME280;63979;55.644;37.734;2022-12-13T08:23:18;99386.69;;;2.47;83.84
75409;BME280;63979;55.644;37.734;2022-12-13T08:28:20;99388.59;;;2.64;83.30
75409;BME280;63979;55.644;37.734;2022-12-13T08:33:21;99381.59;;;2.42;83.70
75409;BME280;63979;55.644;37.734;2022-12-13T08:38:22;99377.78;;;2.49;84.20
75409;BME280;63979;55.644;37.734;2022-12-13T08:43:23;99370.53;;;2.55;83.76
75409;BME280;63979;55.644;37.734;2022-12-13T08:48:24;99388.66;;;2.62;83.67
75409;BME280;63979;55.644;37.734;2022-12-13T08:53:25;99394.44;;;2.50;83.93
75409;BME280;63979;55.644;37.734;2022-12-13T08:58:26;99409.13;;;2.56;84.26
75409;BME280;63979;55.644;37.734;2022-12-13T09:03:27;99411.84;;;2.54;84.40
75409;BME280;63979;55.644;37.734;2022-12-13T09:08:28;99419.59;;;2.57;84.59
75409;BME280;63979;55.644;37.734;2022-12-13T09:13:32;99428.81;;;2.47;85.34
75409;BME280;63979;55.644;37.734;2022-12-13T09:18:34;99417.16;;;2.53;84.86
75409;BME280;63979;55.644;37.734;2022-12-13T09:23:36;99433.69;;;2.56;84.89
75409;BME280;63979;55.644;37.734;2022-12-13T09:28:37;99443.66;;;2.49;85.13
75409;BME280;63979;55.644;37.734;2022-12-13T09:33:39;99408.56;;;2.27;84.07
75409;BME280;63979;55.644;37.734;2022-12-13T09:38:40;99442.34;;;2.38;83.68
75409;BME280;63979;55.644;37.734;2022-12-13T09:43:42;99411.94;;;2.31;82.68
75409;BME280;63979;55.644;37.734;2022-12-13T09:48:44;99409.97;;;2.36;82.45
75409;BME280;63979;55.644;37.734;2022-12-13T09:53:49;99415.94;;;2.19;82.57
75409;BME280;63979;55.644;37.734;2022-12-13T09:58:53;99455.13;;;2.27;83.32
75409;BME280;63979;55.644;37.734;2022-12-13T10:03:58;99414.28;;;2.16;81.99
75409;BME280;63979;55.644;37.734;2022-12-13T10:09:00;99447.25;;;2.47;80.96
75409;BME280;63979;55.644;37.734;2022-12-13T10:19:17;99475.31;;;2.48;81.43
75409;BME280;63979;55.644;37.734;2022-12-13T10:24:21;99482.50;;;2.23;81.71
75409;BME280;63979;55.644;37.734;2022-12-13T10:29:27;99476.72;;;2.35;81.16
75409;BME280;63979;55.644;37.734;2022-12-13T10:34:29;99493.94;;;2.22;80.71
75409;BME280;63979;55.644;37.734;2022-12-13T10:39:42;99483.03;;;2.31;79.90
75409;BME280;63979;55.644;37.734;2022-12-13T10:44:43;99499.31;;;2.40;80.11
75409;BME280;63979;55.644;37.734;2022-12-13T10:54:55;99491.38;;;2.20;81.25
75409;BME280;63979;55.644;37.734;2022-12-13T10:59:58;99494.53;;;2.06;80.70
75409;BME280;63979;55.644;37.734;2022-12-13T11:10:28;99507.81;;;2.03;80.37
75409;BME280;63979;55.644;37.734;2022-12-13T11:15:30;99516.75;;;1.99;79.76
75409;BME280;63979;55.644;37.734;2022-12-13T11:20:37;99516.34;;;2.10;80.03
75409;BME280;63979;55.644;37.734;2022-12-13T11:25:46;99510.91;;;2.14;79.95
75409;BME280;63979;55.644;37.734;2022-12-13T11:31:12;99528.41;;;2.15;80.14
75409;BME280;63979;55.644;37.734;2022-12-13T11:41:48;99541.22;;;2.01;79.76
75409;BME280;63979;55.644;37.734;2022-12-13T11:46:59;99550.91;;;2.01;79.20
75409;BME280;63979;55.644;37.734;2022-12-13T11:52:15;99549.56;;;1.91;79.69
75409;BME280;63979;55.644;37.734;2022-12-13T12:02:41;99561.66;;;1.95;79.93
75409;BME280;63979;55.644;37.734;2022-12-13T12:07:49;99580.63;;;1.81;80.21
75409;BME280;63979;55.644;37.734;2022-12-13T12:13:00;99595.13;;;1.68;80.91
75409;BME280;63979;55.644;37.734;2022-12-13T12:18:04;99593.56;;;1.62;80.94
75409;BME280;63979;55.644;37.734;2022-12-13T12:24:04;99601.78;;;1.53;81.16
75409;BME280;63979;55.644;37.734;2022-12-13T12:45:08;99584.34;;;1.50;78.27
75409;BME280;63979;55.644;37.734;2022-12-13T12:50:27;99573.94;;;1.47;77.94
75409;BME280;63979;55.644;37.734;2022-12-13T12:55:50;99569.53;;;1.48;77.85
75409;BME280;63979;55.644;37.734;2022-12-13T13:01:28;99565.38;;;1.42;77.63
75409;BME280;63979;55.644;37.734;2022-12-13T13:06:48;99562.69;;;1.44;77.69
75409;BME280;63979;55.644;37.734;2022-12-13T13:11:51;99576.13;;;1.35;77.86
75409;BME280;63979;55.644;37.734;2022-12-13T13:16:52;99578.56;;;1.41;77.24
75409;BME280;63979;55.644;37.734;2022-12-13T13:21:57;99565.31;;;1.44;77.23
75409;BME280;63979;55.644;37.734;2022-12-13T13:27:27;99573.78;;;1.52;77.16
75409;BME280;63979;55.644;37.734;2022-12-13T13:32:37;99570.19;;;1.54;77.38
75409;BME280;63979;55.644;37.734;2022-12-13T13:37:47;99581.44;;;1.58;77.03
75409;BME280;63979;55.644;37.734;2022-12-13T14:20:33;99572.13;;;1.24;75.42
75409;BME280;63979;55.644;37.734;2022-12-13T14:25:55;99587.94;;;1.23;75.55
75409;BME280;63979;55.644;37.734;2022-12-13T14:30:58;99582.53;;;1.28;75.71
75409;BME280;63979;55.644;37.734;2022-12-13T14:36:00;99538.16;;;1.18;75.67
75409;BME280;63979;55.644;37.734;2022-12-13T14:41:04;99567.13;;;1.42;75.74
75409;BME280;63979;55.644;37.734;2022-12-13T14:46:07;99532.63;;;1.26;75.78
75409;BME280;63979;55.644;37.734;2022-12-13T14:51:27;99572.34;;;1.43;74.98
75409;BME280;63979;55.644;37.734;2022-12-13T14:56:31;99566.22;;;1.43;74.95
75409;BME280;63979;55.644;37.734;2022-12-13T15:01:34;99560.56;;;1.53;74.41
75409;BME280;63979;55.644;37.734;2022-12-13T15:06:35;99570.69;;;1.64;74.17
75409;BME280;63979;55.644;37.734;2022-12-13T15:11:36;99567.91;;;1.69;74.77
75409;BME280;63979;55.644;37.734;2022-12-13T15:16:37;99565.09;;;1.73;74.53
75409;BME280;63979;55.644;37.734;2022-12-13T15:21:38;99575.41;;;1.79;74.63
75409;BME280;63979;55.644;37.734;2022-12-13T15:26:40;99565.06;;;1.75;73.71
75409;BME280;63979;55.644;37.734;2022-12-13T15:31:41;99553.19;;;1.63;73.77
75409;BME280;63979;55.644;37.734;2022-12-13T15:36:42;99583.03;;;1.87;73.66
75409;BME280;63979;55.644;37.734;2022-12-13T15:41:47;99579.41;;;1.90;73.87
75409;BME280;63979;55.644;37.734;2022-12-13T15:46:50;99591.59;;;1.92;74.30
75409;BME280;63979;55.644;37.734;2022-12-13T15:52:01;99582.09;;;1.88;74.58
75409;BME280;63979;55.644;37.734;2022-12-13T15:57:15;99538.63;;;1.54;76.24
75409;BME280;63979;55.644;37.734;2022-12-13T16:02:23;99565.31;;;1.67;77.04
75409;BME280;63979;55.644;37.734;2022-12-13T16:07:34;99576.81;;;1.65;77.21
75409;BME280;63979;55.644;37.734;2022-12-13T16:12:42;99574.13;;;1.66;77.38
75409;BME280;63979;55.644;37.734;2022-12-13T16:17:48;99573.59;;;1.56;78.02
75409;BME280;63979;55.644;37.734;2022-12-13T16:22:49;99533.38;;;1.30;78.58
75409;BME280;63979;55.644;37.734;2022-12-13T16:28:02;99565.38;;;1.42;78.30
75409;BME280;63979;55.644;37.734;2022-12-13T16:33:03;99566.47;;;1.35;79.42
75409;BME280;63979;55.644;37.734;2022-12-13T16:38:04;99569.00;;;1.38;79.59
75409;BME280;63979;55.644;37.734;2022-12-13T16:43:06;99562.25;;;1.31;80.16
75409;BME280;63979;55.644;37.734;2022-12-13T16:48:15;99560.09;;;1.42;80.21
75409;BME280;63979;55.644;37.734;2022-12-13T16:53:18;99539.88;;;1.44;80.24
75409;BME280;63979;55.644;37.734;2022-12-13T16:58:19;99548.09;;;1.59;80.14
75409;BME280;63979;55.644;37.734;2022-12-13T17:03:23;99536.63;;;1.61;80.42
75409;BME280;63979;55.644;37.734;2022-12-13T17:08:24;99530.38;;;1.64;79.96
75409;BME280;63979;55.644;37.734;2022-12-13T17:13:26;99538.03;;;1.70;79.57
75409;BME280;63979;55.644;37.734;2022-12-13T17:18:27;99524.03;;;1.69;78.86
75409;BME280;63979;55.644;37.734;2022-12-13T17:23:28;99485.34;;;1.49;78.73
75409;BME280;63979;55.644;37.734;2022-12-13T17:28:30;99492.19;;;1.53;78.58
75409;BME280;63979;55.644;37.734;2022-12-13T17:33:31;99517.00;;;1.70;79.11
75409;BME280;63979;55.644;37.734;2022-12-13T17:38:32;99502.84;;;1.74;78.99
75409;BME280;63979;55.644;37.734;2022-12-13T17:43:33;99495.75;;;1.76;78.65
75409;BME280;63979;55.644;37.734;2022-12-13T17:48:35;99441.53;;;1.48;78.43
75409;BME280;63979;55.644;37.734;2022-12-13T17:53:54;99487.06;;;1.74;78.76
75409;BME280;63979;55.644;37.734;2022-12-13T17:59:20;99467.00;;;1.70;78.85
75409;BME280;63979;55.644;37.734;2022-12-13T18:04:22;99470.44;;;1.72;78.73
75409;BME280;63979;55.644;37.734;2022-12-13T18:09:23;99409.19;;;1.46;79.09
75409;BME280;63979;55.644;37.734;2022-12-13T18:14:24;99460.69;;;1.75;79.52
75409;BME280;63979;55.644;37.734;2022-12-13T18:19:25;99439.91;;;1.68;79.73
75409;BME280;63979;55.644;37.734;2022-12-13T18:24:30;99440.88;;;1.43;79.34
75409;BME280;63979;55.644;37.734;2022-12-13T18:29:31;99416.00;;;1.29;78.93
75409;BME280;63979;55.644;37.734;2022-12-13T18:34:32;99406.69;;;1.20;78.53
75409;BME280;63979;55.644;37.734;2022-12-13T18:39:33;99412.16;;;1.14;78.52
75409;BME280;63979;55.644;37.734;2022-12-13T18:44:34;99360.00;;;0.80;78.30
75409;BME280;63979;55.644;37.734;2022-12-13T18:49:35;99406.94;;;0.89;78.71
75409;BME280;63979;55.644;37.734;2022-12-13T18:54:36;99387.53;;;0.68;79.27
75409;BME280;63979;55.644;37.734;2022-12-13T18:59:37;99400.94;;;0.60;79.73
75409;BME280;63979;55.644;37.734;2022-12-13T19:05:00;99411.94;;;0.47;80.22
75409;BME280;63979;55.644;37.734;2022-12-13T19:10:04;99375.63;;;0.08;79.56
75409;BME280;63979;55.644;37.734;2022-12-13T19:15:05;99386.50;;;-0.04;80.48
75409;BME280;63979;55.644;37.734;2022-12-13T19:20:07;99374.41;;;-0.08;81.44
75409;BME280;63979;55.644;37.734;2022-12-13T19:25:08;99352.22;;;-0.24;80.56
75409;BME280;63979;55.644;37.734;2022-12-13T19:30:10;99353.50;;;-0.38;80.95
75409;BME280;63979;55.644;37.734;2022-12-13T19:35:11;99365.91;;;-0.43;81.13
75409;BME280;63979;55.644;37.734;2022-12-13T19:40:11;99352.47;;;-0.60;80.53
75409;BME280;63979;55.644;37.734;2022-12-13T19:45:13;99360.53;;;-0.66;79.89
75409;BME280;63979;55.644;37.734;2022-12-13T19:50:14;99337.13;;;-0.72;81.17
75409;BME280;63979;55.644;37.734;2022-12-13T19:55:16;99342.72;;;-0.55;81.54
75409;BME280;63979;55.644;37.734;2022-12-13T20:00:16;99344.75;;;-0.65;80.62
75409;BME280;63979;55.644;37.734;2022-12-13T20:05:18;99319.59;;;-0.98;81.59
75409;BME280;63979;55.644;37.734;2022-12-13T20:10:19;99353.50;;;-0.93;80.24
75409;BME280;63979;55.644;37.734;2022-12-13T20:15:20;99313.34;;;-1.23;80.31
75409;BME280;63979;55.644;37.734;2022-12-13T20:20:21;99306.31;;;-1.21;80.58
75409;BME280;63979;55.644;37.734;2022-12-13T20:25:26;99320.88;;;-1.13;80.35
75409;BME280;63979;55.644;37.734;2022-12-13T20:30:27;99313.78;;;-1.09;81.04
75409;BME280;63979;55.644;37.734;2022-12-13T20:35:28;99291.59;;;-1.26;80.49
75409;BME280;63979;55.644;37.734;2022-12-13T20:40:29;99296.50;;;-1.44;80.62
75409;BME280;63979;55.644;37.734;2022-12-13T20:45:31;99310.53;;;-1.47;81.30
75409;BME280;63979;55.644;37.734;2022-12-13T20:50:32;99308.25;;;-1.28;82.11
75409;BME280;63979;55.644;37.734;2022-12-13T20:55:34;99300.59;;;-1.34;81.50
75409;BME280;63979;55.644;37.734;2022-12-13T21:00:38;99292.88;;;-1.40;81.58
75409;BME280;63979;55.644;37.734;2022-12-13T21:05:39;99287.50;;;-1.34;80.12
75409;BME280;63979;55.644;37.734;2022-12-13T21:10:45;99291.25;;;-1.44;81.19
75409;BME280;63979;55.644;37.734;2022-12-13T21:15:46;99301.56;;;-1.69;79.88
75409;BME280;63979;55.644;37.734;2022-12-13T21:20:46;99293.31;;;-1.86;80.42
75409;BME280;63979;55.644;37.734;2022-12-13T21:25:50;99289.44;;;-2.04;80.93
75409;BME280;63979;55.644;37.734;2022-12-13T21:31:08;99292.00;;;-2.03;80.98
75409;BME280;63979;55.644;37.734;2022-12-13T21:36:14;99288.47;;;-2.00;81.33
75409;BME280;63979;55.644;37.734;2022-12-13T21:41:15;99263.38;;;-2.09;80.91
75409;BME280;63979;55.644;37.734;2022-12-13T21:46:21;99265.41;;;-2.18;81.07
75409;BME280;63979;55.644;37.734;2022-12-13T21:51:24;99246.53;;;-2.30;80.73
75409;BME280;63979;55.644;37.734;2022-12-13T21:56:29;99201.38;;;-2.35;81.01
75409;BME280;63979;55.644;37.734;2022-12-13T22:02:01;99234.38;;;-2.31;80.70
75409;BME280;63979;55.644;37.734;2022-12-13T22:07:14;99242.66;;;-2.49;80.66
75409;BME280;63979;55.644;37.734;2022-12-13T22:12:24;99218.22;;;-2.46;80.60
75409;BME280;63979;55.644;37.734;2022-12-13T22:17:27;99213.84;;;-2.46;80.77
75409;BME280;63979;55.644;37.734;2022-12-13T22:22:28;99218.97;;;-2.43;80.32
75409;BME280;63979;55.644;37.734;2022-12-13T22:27:29;99230.38;;;-2.45;80.21
75409;BME280;63979;55.644;37.734;2022-12-13T22:32:30;99205.34;;;-2.54;80.72
75409;BME280;63979;55.644;37.734;2022-12-13T22:37:32;99199.16;;;-2.50;80.57
75409;BME280;63979;55.644;37.734;2022-12-13T22:42:33;99199.22;;;-2.53;80.91
75409;BME280;63979;55.644;37.734;2022-12-13T22:47:35;99180.94;;;-2.53;81.23
75409;BME280;63979;55.644;37.734;2022-12-13T22:52:35;99198.66;;;-2.64;80.12
75409;BME280;63979;55.644;37.734;2022-12-13T22:57:40;99177.59;;;-2.58;80.62
75409;BME280;63979;55.644;37.734;2022-12-13T23:02:41;99161.19;;;-2.63;79.34
75409;BME280;63979;55.644;37.734;2022-12-13T23:07:42;99138.19;;;-2.83;79.36
75409;BME280;63979;55.644;37.734;2022-12-13T23:12:43;99116.56;;;-2.88;79.89
75409;BME280;63979;55.644;37.734;2022-12-13T23:18:02;99120.44;;;-3.03;80.19
75409;BME280;63979;55.644;37.734;2022-12-13T23:23:03;99115.41;;;-3.10;79.02
75409;BME280;63979;55.644;37.734;2022-12-13T23:28:04;99112.19;;;-3.22;79.08
75409;BME280;63979;55.644;37.734;2022-12-13T23:33:05;99111.44;;;-3.27;78.57
75409;BME280;63979;55.644;37.734;2022-12-13T23:38:07;99094.34;;;-3.38;78.85
75409;BME280;63979;55.644;37.734;2022-12-13T23:43:08;99046.69;;;-3.45;79.22
75409;BME280;63979;55.644;37.734;2022-12-13T23:48:09;99087.81;;;-3.21;77.66
75409;BME280;63979;55.644;37.734;2022-12-13T23:53:09;99031.00;;;-3.43;78.09
75409;BME280;63979;55.644;37.734;2022-12-13T23:58:11;99012.75;;;-3.79;77.44
